Time;durP1;ratioP1;P1;durP2;ratioP2;P2;SDS_P1;SDS_P2;PMS_P1;PMS_P2;Temp;Humidity;BMP_temperature;BMP_pressure;BME280_temperature;BME280_humidity;BME280_pressure;Samples;Min_cycle;Max_cycle;Signal;HPM_P1;HPM_P2
2021/12/07 00:02:10;;;;;;;40.40;36.50;;;;;;;-0.71;88.25;97428.59;106275;1323;22531;-58
2021/12/07 00:04:43;;;;;;;42.20;38.00;;;;;;;-0.69;88.30;97432.17;106298;1323;22258;-59
2021/12/07 00:07:18;;;;;;;46.50;41.90;;;;;;;-0.69;88.22;97440.16;106295;1323;22448;-59
2021/12/07 00:09:51;;;;;;;45.80;41.20;;;;;;;-0.69;88.23;97442.59;106311;1323;22466;-59
2021/12/07 00:12:28;;;;;;;43.90;39.30;;;;;;;-0.66;88.61;97449.95;106307;1323;22472;-59
2021/12/07 00:15:01;;;;;;;40.00;36.10;;;;;;;-0.58;88.54;97455.76;106299;1323;22445;-58
2021/12/07 00:17:36;;;;;;;43.70;39.50;;;;;;;-0.52;88.34;97457.52;106307;1323;23096;-61
2021/12/07 00:20:37;;;;;;;42.40;38.20;;;;;;;-0.40;88.42;97457.70;106303;1323;22381;-59
2021/12/07 00:23:10;;;;;;;45.70;41.10;;;;;;;-0.32;88.35;97449.80;106342;1323;22501;-60
2021/12/07 00:25:40;;;;;;;45.80;41.30;;;;;;;-0.31;88.16;97449.02;106327;1323;22419;-57
2021/12/07 00:28:14;;;;;;;44.10;39.60;;;;;;;-0.35;88.06;97444.88;106303;1323;22400;-57
2021/12/07 00:30:49;;;;;;;41.80;37.30;;;;;;;-0.41;87.84;97441.23;106310;1323;22439;-58
2021/12/07 00:35:55;;;;;;;45.50;40.90;;;;;;;-0.51;87.80;97438.62;106334;1323;22273;-59
2021/12/07 00:38:28;;;;;;;47.00;42.30;;;;;;;-0.56;87.81;97443.04;106323;1323;22534;-60
2021/12/07 00:41:03;;;;;;;45.00;40.60;;;;;;;-0.62;87.97;97451.73;106334;1323;22385;-59
2021/12/07 00:43:33;;;;;;;44.00;39.60;;;;;;;-0.66;88.01;97453.65;106315;1323;22372;-59
2021/12/07 00:46:03;;;;;;;44.70;40.20;;;;;;;-0.66;87.87;97448.89;106234;1323;22356;-59
2021/12/07 00:48:43;;;;;;;46.60;41.80;;;;;;;-0.66;88.02;97447.46;106336;1322;22355;-59
2021/12/07 00:51:29;;;;;;;48.00;43.40;;;;;;;-0.66;87.94;97446.08;106260;1323;23279;-58
2021/12/07 00:54:04;;;;;;;49.30;44.10;;;;;;;-0.67;88.13;97441.20;106329;1323;22504;-58
2021/12/07 00:56:37;;;;;;;;;;;;;;;-0.68;88.03;97443.10;106273;1323;22440;-59
2021/12/07 00:59:10;;;;;;;46.00;41.60;;;;;;;-0.67;88.30;97439.34;106314;1323;22973;-58
2021/12/07 01:01:43;;;;;;;42.50;38.30;;;;;;;-0.61;88.06;97435.86;106300;1322;22443;-59
2021/12/07 01:04:12;;;;;;;44.90;40.40;;;;;;;-0.55;88.04;97435.44;106313;1323;22580;-58
2021/12/07 01:06:49;;;;;;;46.60;42.00;;;;;;;-0.51;88.07;97429.88;106301;1323;22393;-60
2021/12/07 01:09:28;;;;;;;48.20;43.60;;;;;;;-0.52;87.83;97432.04;106257;1323;22465;-59
2021/12/07 01:25:58;;;;;;;44.20;39.60;;;;;;;-0.63;87.79;97427.52;106318;1323;23366;-58
2021/12/07 01:31:26;;;;;;;46.00;41.60;;;;;;;-0.75;87.94;97415.61;106270;1323;22585;-58
2021/12/07 01:34:14;;;;;;;46.00;41.50;;;;;;;-0.78;87.96;97422.37;106256;1323;23124;-58
2021/12/07 01:48:07;;;;;;;37.30;33.90;;;;;;;-0.79;88.10;97418.55;106278;1324;22253;-58
2021/12/07 02:01:37;;;;;;;38.10;34.70;;;;;;;-0.82;87.85;97417.12;106313;1321;23689;-59
2021/12/07 02:04:05;;;;;;;36.80;33.40;;;;;;;-0.83;87.89;97407.63;106238;1323;22621;-60
2021/12/07 02:06:33;;;;;;;38.20;34.50;;;;;;;-0.85;87.80;97403.31;106299;1323;22388;-59
2021/12/07 02:09:05;;;;;;;36.20;32.70;;;;;;;-0.84;87.86;97403.74;106279;1322;23080;-59
2021/12/07 02:11:34;;;;;;;34.20;30.90;;;;;;;-0.80;87.71;97410.01;106253;1323;22288;-57
2021/12/07 02:14:15;;;;;;;34.50;31.40;;;;;;;-0.78;87.65;97409.46;106326;1323;22877;-58
2021/12/07 02:16:47;;;;;;;37.30;33.80;;;;;;;-0.79;87.60;97404.00;106077;1324;23202;-59
2021/12/07 02:19:16;;;;;;;36.60;33.20;;;;;;;-0.84;87.33;97396.81;106228;1323;22219;-59
2021/12/07 02:21:45;;;;;;;36.30;32.80;;;;;;;-0.87;87.63;97393.17;106251;1323;22600;-58
2021/12/07 02:24:19;;;;;;;36.70;33.20;;;;;;;-0.86;87.46;97389.16;106244;1323;22445;-59
2021/12/07 02:26:48;;;;;;;35.00;31.70;;;;;;;-0.84;87.51;97392.64;106294;1322;22451;-59
2021/12/07 02:29:19;;;;;;;38.90;35.30;;;;;;;-0.83;87.48;97393.52;106240;1323;22494;-59
2021/12/07 02:31:50;;;;;;;40.30;36.60;;;;;;;-0.82;87.69;97390.18;106246;1323;22570;-59
2021/12/07 02:34:20;;;;;;;40.30;36.60;;;;;;;-0.82;87.31;97390.04;106262;1323;22474;-59
2021/12/07 02:36:50;;;;;;;45.50;41.10;;;;;;;-0.87;87.52;97387.57;106259;1323;22491;-59
2021/12/07 02:39:29;;;;;;;38.70;35.20;;;;;;;-0.85;87.52;97392.73;106254;1324;22588;-59
2021/12/07 02:41:58;;;;;;;37.60;34.20;;;;;;;-0.85;87.46;97390.41;106225;1323;22904;-59
2021/12/07 02:44:27;;;;;;;41.60;37.80;;;;;;;-0.85;87.51;97390.94;106282;1323;22402;-57
2021/12/07 02:46:55;;;;;;;43.60;39.40;;;;;;;-0.85;87.59;97392.15;106288;1322;23238;-60
2021/12/07 02:49:24;;;;;;;49.50;44.90;;;;;;;-0.86;87.85;97392.18;106226;1323;22486;-59
2021/12/07 02:51:52;;;;;;;46.30;42.00;;;;;;;-0.83;87.51;97399.33;106212;1323;22560;-57
2021/12/07 02:54:21;;;;;;;41.80;37.80;;;;;;;-0.85;87.56;97399.96;106274;1323;22401;-57
2021/12/07 02:56:51;;;;;;;47.80;43.40;;;;;;;-0.85;87.45;97408.75;106272;1323;22567;-57
2021/12/07 02:59:21;;;;;;;47.50;43.10;;;;;;;-0.88;87.40;97404.89;106272;1323;23251;-59
2021/12/07 03:02:01;;;;;;;48.70;44.10;;;;;;;-0.91;87.35;97402.51;106129;1323;22383;-58
2021/12/07 03:04:37;;;;;;;47.10;42.60;;;;;;;-0.98;87.44;97404.25;106254;1323;22406;-58
2021/12/07 03:07:26;;;;;;;45.40;41.10;;;;;;;-1.02;87.58;97405.70;106254;1323;22896;-58
2021/12/07 03:26:27;;;;;;;48.10;43.10;;;;;;;-1.02;87.72;97412.95;106242;1323;22463;-58
2021/12/07 03:28:58;;;;;;;48.00;43.50;;;;;;;-1.06;87.83;97416.25;106222;1323;22578;-58
2021/12/07 03:31:27;;;;;;;46.10;41.80;;;;;;;-1.06;87.74;97418.27;106290;1322;22472;-57
2021/12/07 03:33:58;;;;;;;46.90;42.50;;;;;;;-1.07;87.77;97417.73;106286;1323;23143;-58
2021/12/07 03:36:29;;;;;;;62.40;56.40;;;;;;;-1.06;87.83;97419.02;106272;1323;22303;-58
2021/12/07 03:38:58;;;;;;;50.80;46.00;;;;;;;-1.01;87.81;97423.17;106282;1323;22301;-58
2021/12/07 03:41:27;;;;;;;50.20;45.40;;;;;;;-1.05;87.63;97424.70;106261;1323;22477;-57
2021/12/07 03:43:55;;;;;;;43.40;39.10;;;;;;;-1.08;87.84;97423.20;106306;1323;22476;-58
2021/12/07 03:46:24;;;;;;;44.00;39.80;;;;;;;-1.11;87.90;97422.71;106279;1320;23127;-58
2021/12/07 03:48:52;;;;;;;47.40;42.80;;;;;;;-1.16;87.61;97427.08;106259;1323;23214;-58
2021/12/07 03:51:21;;;;;;;46.10;41.70;;;;;;;-1.23;87.94;97432.22;106283;1323;23329;-59
2021/12/07 03:53:49;;;;;;;44.50;40.10;;;;;;;-1.25;87.88;97433.80;106271;1323;22568;-58
2021/12/07 03:56:17;;;;;;;43.20;38.90;;;;;;;-1.26;88.05;97433.70;106243;1323;23176;-58
2021/12/07 03:58:45;;;;;;;43.60;39.30;;;;;;;-1.19;88.08;97434.14;106336;1323;23316;-58
2021/12/07 04:01:14;;;;;;;42.90;38.80;;;;;;;-1.13;87.88;97433.79;106251;1323;22439;-58
2021/12/07 04:03:45;;;;;;;46.90;42.60;;;;;;;-1.11;87.85;97436.58;106279;1323;23217;-58
2021/12/07 04:06:15;;;;;;;45.80;41.40;;;;;;;-1.13;87.88;97439.70;106244;1323;22566;-58
2021/12/07 04:08:43;;;;;;;44.40;40.20;;;;;;;-1.13;87.85;97439.70;106318;1323;22990;-58
2021/12/07 04:11:15;;;;;;;43.30;39.20;;;;;;;-1.14;87.99;97439.42;106314;1318;22495;-59
2021/12/07 04:13:45;;;;;;;42.90;38.70;;;;;;;-1.10;87.80;97441.23;106307;1323;22412;-58
2021/12/07 04:16:17;;;;;;;46.40;42.20;;;;;;;-1.06;87.90;97446.68;106243;1323;23216;-58
2021/12/07 04:18:47;;;;;;;46.00;41.90;;;;;;;-1.05;88.01;97453.20;106235;1323;22499;-58
2021/12/07 04:21:16;;;;;;;43.90;39.70;;;;;;;-1.03;87.84;97454.50;106270;1323;22485;-58
2021/12/07 04:23:45;;;;;;;43.30;39.40;;;;;;;-1.08;87.73;97452.62;106307;1323;23031;-57
2021/12/07 04:26:14;;;;;;;41.70;37.80;;;;;;;-1.11;87.85;97455.98;106355;1323;23124;-58
2021/12/07 04:28:43;;;;;;;44.60;40.50;;;;;;;-1.11;87.74;97455.77;106311;1323;23042;-58
2021/12/07 04:31:12;;;;;;;45.40;41.20;;;;;;;-1.14;87.76;97458.30;106321;1315;22470;-58
2021/12/07 04:33:41;;;;;;;49.30;44.80;;;;;;;-1.17;87.98;97455.72;106303;1323;22464;-58
2021/12/07 04:36:10;;;;;;;44.50;40.50;;;;;;;-1.16;88.08;97459.27;106285;1322;22514;-58
2021/12/07 04:38:40;;;;;;;39.90;36.20;;;;;;;-1.12;87.81;97458.88;106169;1323;138312;-58
2021/12/07 04:41:08;;;;;;;40.80;37.10;;;;;;;-1.09;87.88;97456.55;106318;1322;22264;-58
2021/12/07 04:43:40;;;;;;;45.30;40.90;;;;;;;-1.04;87.94;97454.73;106304;1323;22405;-59
2021/12/07 04:46:30;;;;;;;44.00;40.00;;;;;;;-1.01;87.75;97448.88;106248;1323;22411;-59
2021/12/07 04:49:44;;;;;;;42.50;38.60;;;;;;;-1.04;87.82;97452.38;106287;1323;22345;-59
2021/12/07 04:57:47;;;;;;;59.60;53.80;;;;;;;-1.18;87.81;97455.94;106285;1315;23229;-58
2021/12/07 05:00:21;;;;;;;61.50;55.70;;;;;;;-1.17;87.94;97452.91;106289;1323;22660;-59
2021/12/07 05:03:00;;;;;;;50.20;45.60;;;;;;;-1.17;87.67;97451.65;106277;1323;22066;-57
2021/12/07 05:05:34;;;;;;;48.20;43.90;;;;;;;-1.19;87.88;97451.70;106301;1315;22610;-58
2021/12/07 05:08:08;;;;;;;48.30;43.80;;;;;;;-1.17;87.83;97453.54;106314;1321;23247;-58
2021/12/07 05:11:01;;;;;;;48.70;44.40;;;;;;;-1.16;87.91;97455.25;106191;1316;137687;-58
2021/12/07 05:13:32;;;;;;;47.50;43.40;;;;;;;-1.13;87.97;97455.94;106208;1318;22504;-59
2021/12/07 05:24:11;;;;;;;41.50;37.70;;;;;;;-1.02;87.99;97453.77;106289;1323;22424;-57
2021/12/07 05:40:27;;;;;;;45.10;41.20;;;;;;;-0.98;87.74;97442.27;106200;1315;137512;-59
2021/12/07 05:42:57;;;;;;;46.20;42.10;;;;;;;-1.03;87.78;97438.80;106217;1318;23302;-58
2021/12/07 05:45:31;;;;;;;52.00;47.30;;;;;;;-1.02;87.89;97436.06;106295;1317;23386;-59
2021/12/07 05:48:02;;;;;;;50.90;46.20;;;;;;;-0.99;87.81;97431.89;106279;1319;22477;-58
2021/12/07 05:50:33;;;;;;;43.70;39.80;;;;;;;-0.96;87.71;97429.13;106301;1314;22583;-58
2021/12/07 05:53:03;;;;;;;42.80;39.10;;;;;;;-0.93;87.64;97428.73;106305;1314;22468;-59
2021/12/07 05:55:31;;;;;;;47.00;42.70;;;;;;;-0.87;87.74;97434.73;106286;1322;22466;-58
2021/12/07 05:57:59;;;;;;;49.50;45.10;;;;;;;-0.84;87.88;97439.68;106327;1323;22295;-58
2021/12/07 06:00:32;;;;;;;55.00;50.00;;;;;;;-0.82;87.93;97443.09;106322;1323;23291;-58
2021/12/07 06:03:04;;;;;;;46.10;41.80;;;;;;;-0.84;87.73;97444.02;106272;1323;23285;-58
2021/12/07 06:05:34;;;;;;;48.50;43.80;;;;;;;-0.82;87.88;97443.33;106310;1323;23146;-58
2021/12/07 06:08:03;;;;;;;54.20;49.10;;;;;;;-0.77;87.76;97441.75;106315;1323;23290;-57
2021/12/07 06:10:32;;;;;;;49.30;44.80;;;;;;;-0.76;87.56;97444.75;106297;1323;22365;-58
2021/12/07 06:13:01;;;;;;;52.80;47.70;;;;;;;-0.74;87.68;97445.10;106314;1323;22525;-58
2021/12/07 06:15:32;;;;;;;53.70;48.50;;;;;;;-0.75;87.63;97445.77;106338;1323;22476;-59
2021/12/07 06:18:01;;;;;;;51.30;46.30;;;;;;;-0.74;87.74;97448.80;106320;1323;22524;-58
2021/12/07 06:20:29;;;;;;;53.30;48.10;;;;;;;-0.75;87.81;97449.11;106342;1323;23123;-58
2021/12/07 06:23:16;;;;;;;50.50;45.50;;;;;;;-0.76;87.68;97454.27;106316;1323;22979;-58
2021/12/07 06:25:46;;;;;;;49.90;45.10;;;;;;;-0.76;87.61;97451.73;106152;1317;138064;-56
2021/12/07 06:28:15;;;;;;;51.90;46.80;;;;;;;-0.75;87.54;97455.45;106255;1314;22492;-57
2021/12/07 06:30:45;;;;;;;53.80;48.60;;;;;;;-0.74;87.63;97451.24;106326;1322;22461;-59
2021/12/07 06:33:18;;;;;;;48.80;44.10;;;;;;;-0.71;87.56;97453.88;106379;1322;22531;-59
2021/12/07 06:35:56;;;;;;;49.60;44.60;;;;;;;-0.78;87.32;97452.64;106361;1322;22482;-58
2021/12/07 06:38:27;;;;;;;48.90;44.10;;;;;;;-0.81;87.60;97455.65;106383;1322;22612;-58
2021/12/07 06:40:56;;;;;;;49.00;44.20;;;;;;;-0.78;87.54;97460.79;106359;1322;22582;-58
2021/12/07 06:43:25;;;;;;;48.80;44.00;;;;;;;-0.72;87.62;97468.57;106401;1322;22546;-58
2021/12/07 06:45:54;;;;;;;50.70;45.80;;;;;;;-0.70;87.59;97469.04;106374;1322;23368;-58
2021/12/07 06:48:22;;;;;;;49.90;45.10;;;;;;;-0.71;87.78;97469.13;106249;1324;22507;-57
2021/12/07 06:50:51;;;;;;;51.50;46.50;;;;;;;-0.72;87.65;97471.11;106284;1316;22418;-59
2021/12/07 06:53:19;;;;;;;45.70;41.20;;;;;;;-0.70;87.47;97472.54;106305;1323;22468;-59
2021/12/07 06:55:49;;;;;;;47.10;42.30;;;;;;;-0.71;87.33;97474.10;106266;1323;22444;-59
2021/12/07 06:58:18;;;;;;;49.40;44.30;;;;;;;-0.73;87.43;97472.52;106366;1323;22507;-59
2021/12/07 07:00:46;;;;;;;55.00;49.50;;;;;;;-0.74;87.48;97472.66;106229;1321;137566;-59
2021/12/07 07:03:14;;;;;;;53.00;47.50;;;;;;;-0.78;87.41;97477.30;106329;1323;22464;-59
2021/12/07 07:05:42;;;;;;;52.60;47.30;;;;;;;-0.80;87.47;97484.02;106297;1323;22466;-59
2021/12/07 07:08:10;;;;;;;52.50;47.20;;;;;;;-0.79;87.43;97488.29;106294;1323;22546;-58
2021/12/07 07:10:38;;;;;;;52.00;46.90;;;;;;;-0.77;87.42;97489.86;106293;1323;22282;-59
2021/12/07 07:13:07;;;;;;;54.90;49.50;;;;;;;-0.79;87.41;97493.73;106310;1323;23107;-59
2021/12/07 07:15:36;;;;;;;53.80;48.40;;;;;;;-0.80;87.54;97496.52;106317;1322;22361;-59
2021/12/07 07:18:04;;;;;;;57.10;51.40;;;;;;;-0.84;87.31;97496.08;106289;1323;22965;-59
2021/12/07 07:20:33;;;;;;;49.50;44.70;;;;;;;-0.83;87.44;97500.73;106302;1323;22400;-58
2021/12/07 07:23:01;;;;;;;54.30;48.90;;;;;;;-0.78;87.55;97503.11;106293;1323;22480;-59
2021/12/07 07:25:29;;;;;;;59.10;53.20;;;;;;;-0.74;87.43;97503.71;106303;1323;23339;-59
2021/12/07 07:27:58;;;;;;;58.90;53.10;;;;;;;-0.71;87.34;97504.68;106314;1323;22247;-59
2021/12/07 07:30:27;;;;;;;63.20;57.00;;;;;;;-0.72;87.35;97508.73;106291;1323;22494;-59
2021/12/07 07:32:55;;;;;;;62.80;56.40;;;;;;;-0.72;87.58;97513.44;106325;1323;22923;-59
2021/12/07 07:35:23;;;;;;;56.20;50.80;;;;;;;-0.66;87.70;97512.92;106203;1323;138467;-59
2021/12/07 07:37:52;;;;;;;56.80;51.30;;;;;;;-0.59;87.52;97512.80;106306;1323;22487;-59
2021/12/07 07:40:22;;;;;;;57.60;52.10;;;;;;;-0.53;87.44;97509.94;106308;1323;22334;-59
2021/12/07 07:42:51;;;;;;;56.70;51.10;;;;;;;-0.49;87.41;97514.25;106294;1323;22444;-59
2021/12/07 07:45:37;;;;;;;57.90;52.10;;;;;;;-0.45;87.30;97515.85;106226;1323;22350;-56
2021/12/07 07:48:05;;;;;;;54.60;49.50;;;;;;;-0.43;87.53;97513.34;106256;1323;23000;-57
2021/12/07 07:50:35;;;;;;;49.50;44.70;;;;;;;-0.43;87.19;97514.04;106365;1322;23406;-57
2021/12/07 07:53:03;;;;;;;52.20;47.00;;;;;;;-0.43;87.06;97513.19;106349;1323;22469;-57
2021/12/07 07:55:32;;;;;;;49.00;44.30;;;;;;;-0.43;87.17;97516.52;106328;1323;22499;-58
2021/12/07 07:58:05;;;;;;;49.90;44.90;;;;;;;-0.46;87.05;97519.07;106340;1323;22464;-58
2021/12/07 08:00:33;;;;;;;50.40;45.70;;;;;;;-0.53;86.99;97515.98;106327;1323;22299;-58
2021/12/07 08:03:03;;;;;;;46.40;42.00;;;;;;;-0.59;87.15;97517.78;106343;1322;23241;-56
2021/12/07 08:05:32;;;;;;;47.00;42.50;;;;;;;-0.59;87.25;97515.61;106230;1323;22396;-58
2021/12/07 08:08:00;;;;;;;50.50;45.50;;;;;;;-0.56;87.08;97509.28;106311;1323;22500;-57
2021/12/07 08:10:29;;;;;;;49.80;45.00;;;;;;;-0.56;86.85;97514.48;106308;1323;23240;-58
2021/12/07 08:13:00;;;;;;;51.70;46.60;;;;;;;-0.55;87.10;97509.74;106282;1323;22464;-58
2021/12/07 08:15:31;;;;;;;51.50;46.60;;;;;;;-0.53;87.12;97511.25;106290;1323;22476;-58
2021/12/07 08:18:00;;;;;;;51.90;47.00;;;;;;;-0.53;87.19;97508.61;106237;1323;23104;-57
2021/12/07 08:20:31;;;;;;;46.50;42.00;;;;;;;-0.53;87.15;97511.25;106184;1323;138496;-58
2021/12/07 08:23:04;;;;;;;53.10;48.20;;;;;;;-0.50;86.95;97515.08;106310;1320;22612;-58
2021/12/07 08:25:39;;;;;;;51.50;46.70;;;;;;;-0.46;86.94;97513.72;106322;1323;22317;-58
2021/12/07 08:28:13;;;;;;;55.80;50.30;;;;;;;-0.41;87.09;97517.08;106204;1323;23310;-59
2021/12/07 08:30:42;;;;;;;54.30;49.10;;;;;;;-0.37;87.01;97514.66;106301;1323;22568;-58
2021/12/07 08:33:11;;;;;;;51.50;46.20;;;;;;;-0.37;87.00;97518.96;106346;1323;22914;-58
2021/12/07 08:35:39;;;;;;;52.50;47.50;;;;;;;-0.34;86.89;97521.23;106310;1323;22532;-58
2021/12/07 08:38:09;;;;;;;53.00;47.90;;;;;;;-0.28;86.86;97520.76;106357;1323;22975;-58
2021/12/07 08:40:39;;;;;;;55.20;50.00;;;;;;;-0.21;86.94;97523.69;106339;1323;22406;-58
2021/12/07 08:43:11;;;;;;;49.20;44.50;;;;;;;-0.14;86.85;97526.52;106332;1323;22414;-59
2021/12/07 08:45:41;;;;;;;56.10;50.90;;;;;;;-0.17;86.69;97527.16;106330;1323;22588;-58
2021/12/07 08:48:10;;;;;;;56.70;51.00;;;;;;;-0.20;86.72;97529.69;106320;1322;22497;-58
2021/12/07 08:50:39;;;;;;;46.40;41.90;;;;;;;-0.25;86.30;97527.81;106284;1323;138719;-58
2021/12/07 08:53:10;;;;;;;47.80;43.10;;;;;;;-0.27;86.31;97531.74;106328;1322;23071;-58
2021/12/07 09:01:21;;;;;;;54.70;49.60;;;;;;;-0.30;86.52;97521.41;106355;1323;22478;-58
2021/12/07 09:03:51;;;;;;;47.00;42.60;;;;;;;-0.29;86.40;97522.54;106312;1323;22522;-58
2021/12/07 09:06:19;;;;;;;50.20;45.60;;;;;;;-0.24;86.59;97524.02;106333;1322;22361;-58
2021/12/07 09:08:48;;;;;;;46.10;41.80;;;;;;;-0.19;86.37;97523.94;106346;1323;22471;-58
2021/12/07 09:11:17;;;;;;;51.60;46.70;;;;;;;-0.22;86.10;97525.89;106364;1323;23038;-58
2021/12/07 09:13:46;;;;;;;49.50;44.80;;;;;;;-0.27;86.06;97523.05;106350;1323;22297;-58
2021/12/07 09:16:17;;;;;;;50.10;45.50;;;;;;;-0.28;86.05;97520.97;106331;1323;23286;-59
2021/12/07 09:18:47;;;;;;;45.30;41.00;;;;;;;-0.28;86.02;97521.23;106258;1323;23765;-57
2021/12/07 09:21:17;;;;;;;45.70;41.40;;;;;;;-0.27;85.97;97522.80;106267;1323;22541;-58
2021/12/07 09:23:46;;;;;;;50.80;46.10;;;;;;;-0.22;86.15;97521.12;106331;1323;22546;-57
2021/12/07 09:26:15;;;;;;;42.20;38.20;;;;;;;-0.17;85.99;97520.58;106307;1323;22458;-57
2021/12/07 09:28:45;;;;;;;44.80;40.40;;;;;;;-0.21;85.18;97528.23;106293;1322;22400;-57
2021/12/07 09:31:29;;;;;;;42.40;38.30;;;;;;;-0.31;85.40;97523.05;106191;1323;137823;-58
2021/12/07 09:33:58;;;;;;;48.70;44.10;;;;;;;-0.36;85.43;97524.74;106331;1323;22605;-58
2021/12/07 09:36:28;;;;;;;43.20;39.10;;;;;;;-0.35;85.28;97519.05;106342;1323;22454;-59
2021/12/07 09:39:03;;;;;;;40.10;36.30;;;;;;;-0.33;85.11;97514.86;106353;1323;22402;-58
2021/12/07 09:41:35;;;;;;;42.90;38.80;;;;;;;-0.39;84.55;97512.95;106245;1323;23180;-58
2021/12/07 09:44:10;;;;;;;42.20;38.10;;;;;;;-0.45;84.70;97513.16;106349;1323;22488;-58
2021/12/07 09:46:42;;;;;;;41.70;37.80;;;;;;;-0.46;85.32;97519.29;106292;1323;23128;-58
2021/12/07 09:49:17;;;;;;;44.70;40.60;;;;;;;-0.38;85.54;97519.73;105084;1323;1748176;-59
2021/12/07 09:52:05;;;;;;;51.50;46.80;;;;;;;-0.29;85.42;97518.63;106300;1323;23151;-58
2021/12/07 09:54:36;;;;;;;48.20;43.70;;;;;;;-0.24;85.27;97518.40;106362;1323;22298;-58
2021/12/07 09:57:11;;;;;;;43.60;39.60;;;;;;;-0.25;85.08;97517.20;106342;1323;23153;-58
2021/12/07 09:59:45;;;;;;;47.70;43.40;;;;;;;-0.28;85.13;97518.92;106363;1323;22543;-59
2021/12/07 10:02:18;;;;;;;66.60;60.30;;;;;;;-0.26;85.39;97516.40;106270;1322;137830;-58
2021/12/07 10:04:50;;;;;;;56.80;51.60;;;;;;;-0.17;85.54;97520.37;106367;1322;22500;-58
2021/12/07 10:07:19;;;;;;;57.00;52.00;;;;;;;-0.08;85.51;97519.26;106342;1323;22489;-59
2021/12/07 10:09:52;;;;;;;52.90;47.90;;;;;;;0.02;85.39;97517.92;106075;1325;23774;-59
2021/12/07 10:12:26;;;;;;;50.40;45.70;;;;;;;0.05;85.02;97514.90;106344;1323;22445;-58
2021/12/07 10:15:13;;;;;;;51.60;46.80;;;;;;;0.06;85.24;97517.30;106309;1323;22402;-58
2021/12/07 10:18:17;;;;;;;48.00;43.60;;;;;;;0.05;85.15;97521.21;106345;1323;22318;-59
2021/12/07 10:21:10;;;;;;;47.40;43.20;;;;;;;0.03;85.11;97516.43;106358;1323;22387;-59
2021/12/07 10:23:48;;;;;;;50.50;45.80;;;;;;;0.08;84.83;97514.48;106340;1323;22391;-58
2021/12/07 10:26:21;;;;;;;47.50;43.20;;;;;;;0.10;84.72;97513.34;106338;1323;23097;-58
2021/12/07 10:29:15;;;;;;;48.90;44.30;;;;;;;0.11;84.79;97512.25;106336;1323;22595;-58
2021/12/07 10:32:01;;;;;;;47.60;42.90;;;;;;;0.11;84.91;97513.10;106221;1323;137475;-59
2021/12/07 10:34:37;;;;;;;46.70;41.20;;;;;;;0.10;84.78;97512.40;106297;1322;22763;-58
2021/12/07 10:37:14;;;;;;;43.50;39.30;;;;;;;0.09;84.82;97514.13;106281;1324;22376;-58
2021/12/07 10:39:51;;;;;;;40.80;36.90;;;;;;;0.09;84.91;97512.16;106236;1324;23724;-58
2021/12/07 10:42:29;;;;;;;45.80;41.40;;;;;;;0.14;84.90;97519.52;106243;1324;22479;-58
2021/12/07 10:45:08;;;;;;;49.90;45.00;;;;;;;0.21;84.87;97518.45;106202;1324;22474;-59
2021/12/07 10:47:40;;;;;;;75.20;68.10;;;;;;;0.22;84.54;97511.11;106274;1323;22547;-57
2021/12/07 10:50:17;;;;;;;61.00;55.30;;;;;;;0.18;84.49;97512.36;106238;1324;22420;-58
2021/12/07 10:52:50;;;;;;;52.40;47.40;;;;;;;0.14;84.52;97515.27;106216;1324;22624;-58
2021/12/07 10:55:25;;;;;;;53.70;48.20;;;;;;;0.18;84.71;97517.77;106168;1324;22621;-58
2021/12/07 10:58:02;;;;;;;52.10;47.10;;;;;;;0.25;84.74;97516.56;106081;1323;22563;-58
2021/12/07 11:00:33;;;;;;;53.80;48.70;;;;;;;0.30;84.60;97516.84;106219;1323;22404;-58
2021/12/07 11:03:15;;;;;;;54.80;49.60;;;;;;;0.32;84.57;97517.52;106329;1323;22534;-58
2021/12/07 11:05:50;;;;;;;50.90;46.20;;;;;;;0.30;84.23;97519.48;106266;1323;22467;-58
2021/12/07 11:08:22;;;;;;;49.30;44.60;;;;;;;0.26;84.27;97517.47;106268;1323;22437;-59
2021/12/07 11:10:54;;;;;;;53.40;48.20;;;;;;;0.29;84.48;97519.64;106220;1323;23224;-59
2021/12/07 11:13:35;;;;;;;56.10;50.70;;;;;;;0.39;84.53;97516.83;106303;1323;22485;-58
2021/12/07 11:16:11;;;;;;;53.30;48.40;;;;;;;0.42;84.20;97519.31;106226;1324;23433;-59
2021/12/07 11:18:44;;;;;;;78.80;71.00;;;;;;;0.39;83.94;97515.55;106285;1323;22440;-59
2021/12/07 11:21:16;;;;;;;53.90;48.70;;;;;;;0.33;83.92;97516.89;106295;1323;22433;-59
2021/12/07 11:23:55;;;;;;;59.20;53.00;;;;;;;0.27;84.06;97516.31;106286;1323;22405;-59
2021/12/07 11:31:59;;;;;;;58.90;53.30;;;;;;;0.25;84.20;97521.52;106219;1324;22452;-59
2021/12/07 11:34:43;;;;;;;59.10;53.30;;;;;;;0.23;83.68;97520.81;106260;1323;22537;-59
2021/12/07 11:37:15;;;;;;;57.10;51.60;;;;;;;0.19;83.87;97524.67;106292;1323;22438;-59
2021/12/07 11:39:49;;;;;;;57.10;51.80;;;;;;;0.16;83.78;97518.11;106294;1323;23385;-59
2021/12/07 11:42:25;;;;;;;53.60;48.40;;;;;;;0.15;83.82;97519.90;106227;1324;23205;-59
2021/12/07 11:44:53;;;;;;;50.70;45.90;;;;;;;0.12;83.56;97519.85;106250;1324;22595;-59
2021/12/07 11:47:43;;;;;;;56.90;51.20;;;;;;;0.09;83.74;97519.05;106223;1324;22426;-60
2021/12/07 11:50:17;;;;;;;56.80;51.60;;;;;;;0.11;83.61;97516.44;106269;1323;22544;-59
2021/12/07 11:52:48;;;;;;;55.50;50.40;;;;;;;0.11;83.23;97517.75;106224;1324;22566;-59
2021/12/07 11:55:18;;;;;;;54.60;49.60;;;;;;;0.04;83.32;97524.06;106199;1324;22586;-59
2021/12/07 11:57:49;;;;;;;56.80;51.50;;;;;;;-0.00;83.37;97519.27;106247;1323;23324;-59
2021/12/07 12:00:34;;;;;;;53.30;48.50;;;;;;;-0.06;83.45;97526.08;106226;1324;22369;-59
2021/12/07 12:03:08;;;;;;;54.50;49.50;;;;;;;-0.06;83.38;97526.61;106226;1324;22410;-58
2021/12/07 12:05:46;;;;;;;58.50;53.20;;;;;;;-0.05;83.41;97528.59;106232;1324;22318;-57
2021/12/07 12:08:19;;;;;;;55.40;50.40;;;;;;;-0.05;83.43;97526.71;106259;1323;22401;-57
2021/12/07 12:11:00;;;;;;;62.10;56.40;;;;;;;-0.06;83.37;97530.73;106291;1322;22479;-59
2021/12/07 12:14:01;;;;;;;66.00;59.80;;;;;;;-0.09;83.38;97534.02;106291;1324;22301;-59
2021/12/07 12:16:50;;;;;;;57.80;52.50;;;;;;;-0.06;83.68;97526.54;105711;1324;22550;-60
2021/12/07 12:19:56;;;;;;;50.60;45.90;;;;;;;-0.07;83.23;97524.67;106257;1323;23396;-59
2021/12/07 12:22:45;;;;;;;55.20;50.00;;;;;;;-0.09;82.53;97525.23;106263;1323;23351;-59
2021/12/07 12:25:18;;;;;;;61.30;55.60;;;;;;;-0.19;82.65;97526.42;106240;1324;22496;-59
2021/12/07 12:27:48;;;;;;;57.90;52.50;;;;;;;-0.22;82.90;97529.39;106222;1323;23366;-59
2021/12/07 12:30:22;;;;;;;52.20;47.10;;;;;;;-0.24;82.90;97529.20;106140;1323;137891;-59
2021/12/07 12:33:00;;;;;;;55.60;50.20;;;;;;;-0.28;82.75;97526.70;106269;1323;22511;-59
2021/12/07 12:35:30;;;;;;;;;;;;;;;-0.29;82.82;97536.48;106320;1323;22494;-58
2021/12/07 12:38:00;;;;;;;53.80;48.60;;;;;;;-0.33;82.72;97532.17;106338;1323;22349;-59
2021/12/07 12:40:32;;;;;;;59.60;54.10;;;;;;;-0.39;82.74;97534.60;106340;1323;22634;-59
2021/12/07 12:43:04;;;;;;;54.40;49.10;;;;;;;-0.43;82.76;97532.46;106321;1323;22291;-58
2021/12/07 12:45:38;;;;;;;56.10;51.00;;;;;;;-0.43;82.80;97536.10;106335;1323;22405;-58
2021/12/07 12:48:10;;;;;;;49.80;45.20;;;;;;;-0.43;82.86;97536.95;106320;1322;22445;-58
2021/12/07 12:50:53;;;;;;;48.20;43.70;;;;;;;-0.40;82.66;97537.92;106316;1323;22306;-59
2021/12/07 12:53:34;;;;;;;54.30;49.10;;;;;;;-0.41;82.63;97535.83;106307;1321;22389;-59
2021/12/07 12:56:12;;;;;;;52.70;47.80;;;;;;;-0.44;82.83;97542.45;106312;1322;23121;-58
2021/12/07 12:58:56;;;;;;;55.50;50.30;;;;;;;-0.44;82.93;97542.02;106404;1322;22482;-58
2021/12/07 13:01:35;;;;;;;54.00;48.80;;;;;;;-0.41;83.01;97545.36;106433;1322;22459;-58
2021/12/07 13:04:08;;;;;;;51.90;46.90;;;;;;;-0.42;82.81;97547.92;106396;1322;22305;-57
2021/12/07 13:06:45;;;;;;;50.30;45.40;;;;;;;-0.41;82.83;97547.73;106406;1322;23327;-59
2021/12/07 13:09:29;;;;;;;49.70;45.10;;;;;;;-0.36;83.01;97550.91;106402;1322;22497;-59
2021/12/07 13:12:03;;;;;;;53.90;48.70;;;;;;;-0.33;82.82;97548.37;106448;1317;23355;-58
2021/12/07 13:14:42;;;;;;;53.10;48.30;;;;;;;-0.34;82.91;97552.58;106424;1322;22321;-59